RIPO2: Cimarron River Near Ripley, OK

                                SHEF ID:       RIPO2     Cimarron River near Ripley, OK
STATION TYPE:
Regulating: Stage = 20.00, Flow = 33370

PRECIP ELEVATION STAGE RIV-FLOW AIR-TEMP WIND-DIRWIND-SPEED REL-HUMID VOLTAGE BAT-LOAD
in ft ft cfs F deg mph % volt volt
Ccp-Rev Ccp-Rev Ccp-Rev Ccp-Rev Ccp-Rev Ccp-Rev Ccp-Rev Ccp-Rev Ccp-Rev Ccp-Rev
(America/Chicago)
03/17 00:00 0.00 ---- 7.44 378 84.56 ---- ---- ---- ---- 12.96
03/17 01:00 0.00 ---- 7.45 382 85.10 ---- ---- ---- ---- 12.83
03/17 02:00 0.00 ---- 7.46 387 86.72 ---- ---- ---- ---- 12.70
03/17 03:00 0.00 ---- 7.46 387 88.52 ---- ---- ---- ---- 12.60
03/17 04:00 0.00 ---- 7.47 391 88.70 ---- ---- ---- ---- 12.53
03/17 05:00 0.00 ---- 7.47 391 86.72 ---- ---- ---- ---- 12.51
03/17 06:00 0.00 ---- 7.47 391 86.36 ---- ---- ---- ---- 12.49
03/17 07:00 0.00 ---- 7.45 382 87.62 ---- ---- ---- ---- 12.46
03/17 08:00 0.00 ---- 7.45 382 89.78 ---- ---- ---- ---- 12.42
03/17 09:00 0.00 ---- 7.39 357 95.18 ---- ---- ---- ---- 12.44
03/17 10:00 0.00 ---- 7.39 357 103.82 ---- ---- ---- ---- 13.21
03/17 11:00 0.00 ---- 7.38 353 112.28 ---- ---- ---- ---- 13.91
03/17 12:00 0.00 ---- 7.37 349 123.08 ---- ---- ---- ---- 13.86
03/17 13:00 0.00 ---- 7.39 357 133.16 ---- ---- ---- ---- 13.78
03/17 14:00 0.00 ---- 7.36 345 139.28 ---- ---- ---- ---- 13.72
03/17 15:00 0.00 ---- 7.36 345 144.32 ---- ---- ---- ---- 13.69
03/17 16:00 0.00 ---- 7.36 345 148.46 ---- ---- ---- ---- 13.65
03/17 17:00 0.00 ---- 7.36 345 152.96 ---- ---- ---- ---- 13.62
03/17 18:00 0.00 ---- 7.34 338 154.04 ---- ---- ---- ---- 13.57
03/17 19:00 0.00 ---- 7.41 365 153.50 ---- ---- ---- ---- 13.55
03/17 20:00 0.00 ---- 7.44 378 147.38 ---- ---- ---- ---- 13.52
03/17 21:00 0.00 ---- 7.43 374 141.26 ---- ---- ---- ---- 13.26
03/17 22:00 0.00 ---- 7.41 365 137.66 ---- ---- ---- ---- 13.07
03/17 23:00 0.00 ---- 7.38 353 135.32 ---- ---- ---- ---- 12.92
Data processed at Wed 18Mar2026 04:02 GMT

NOTICE: If you are parsing this page

Please convert to using our Data API. Starting early 2026 we will be migrating to: https://water.usace.army.mil with modern pages rendered in JavaScript. When this migration completes you will no longer be able to scrape this page! CWMSDataAPI (CDA)

Timeseries IDs (TSIDs)

TSIDs used from left to right in the data table
RIPL.Precip-Inc.Total.1Hour.1Hour.Ccp-Rev
RIPL.Stage.Inst.1Hour.0.Ccp-Rev
RIPL.Flow.Inst.1Hour.0.Ccp-Rev
RIPL.Temp-Air.Inst.1Hour.0.Ccp-Rev
RIPL.Dir-Wind.Inst.1Hour.0.Ccp-Rev
RIPL.Speed-Wind.Inst.1Hour.0.Ccp-Rev
RIPL.%-Humidity.Inst.1Hour.0.Ccp-Rev
RIPL.Volt-Battery.Inst.1Hour.0.Ccp-Rev
RIPL.Volt-Battery Load.Inst.1Hour.0.Ccp-Rev

                            

All information presented herein is the property of the government of the United States of America and may be revised or deleted at any time without prior notice. Dissemination of this information without the expressed written consent of the Public Affairs Office, Tulsa District U.S. Army Corps of Engineers is strictly prohibited. These data are gathered electronically and, as presented, have NOT undergone any form of quality control. These data are NOT guaranteed to be valid or correct.